Time;durP1;ratioP1;P1;durP2;ratioP2;P2;SDS_P1;SDS_P2;PMS_P1;PMS_P2;Temp;Humidity;BMP_temperature;BMP_pressure;BME280_temperature;BME280_humidity;BME280_pressure;Samples;Min_cycle;Max_cycle;Signal;HPM_P1;HPM_P2
2023/03/16 00:01:39;;;;;;;;;;;8.70;99.90;;;;;;5074971;28;19962;-63
2023/03/16 00:04:05;;;;;;;;;;;8.70;99.90;;;;;;5065825;28;19913;-63
2023/03/16 00:06:30;;;;;;;;;;;8.70;99.90;;;;;;5077979;28;19920;-63
2023/03/16 00:08:57;;;;;;;;;;;8.80;99.90;;;;;;5071957;28;20257;-63
2023/03/16 00:11:26;;;;;;;;;;;8.80;99.90;;;;;;5068639;28;19919;-63
2023/03/16 00:13:52;;;;;;;;;;;8.80;99.90;;;;;;5077596;28;20371;-63
2023/03/16 00:16:17;;;;;;;;;;;8.80;99.90;;;;;;5081049;28;19919;-63
2023/03/16 00:18:43;;;;;;;;;;;8.80;99.90;;;;;;5073979;28;19924;-62
2023/03/16 00:21:09;;;;;;;;;;;8.80;99.90;;;;;;5073590;28;19917;-63
2023/03/16 00:23:35;;;;;;;;;;;8.80;99.90;;;;;;5079219;28;19913;-61
2023/03/16 00:26:02;;;;;;;;;;;8.80;99.90;;;;;;5081828;28;20252;-62
2023/03/16 00:28:33;;;;;;;;;;;8.80;99.90;;;;;;5069771;28;19920;-62
2023/03/16 00:31:05;;;;;;;;;;;8.80;99.90;;;;;;5066536;28;19983;-63
2023/03/16 00:33:34;;;;;;;;;;;8.80;99.90;;;;;;5061641;28;19952;-63
2023/03/16 00:36:03;;;;;;;;;;;8.80;99.90;;;;;;5071018;28;19916;-63
2023/03/16 00:38:35;;;;;;;;;;;8.90;99.90;;;;;;5071323;28;19926;-61
2023/03/16 00:41:02;;;;;;;;;;;8.90;99.90;;;;;;5073360;28;19943;-61
2023/03/16 00:43:40;;;;;;;;;;;8.90;99.90;;;;;;5076288;28;19958;-61
2023/03/16 00:46:10;;;;;;;;;;;8.90;99.90;;;;;;5069199;28;21503;-63
2023/03/16 00:48:36;;;;;;;;;;;8.90;99.90;;;;;;5065776;28;19925;-62
2023/03/16 00:51:05;;;;;;;;;;;9.00;99.90;;;;;;5082560;28;19919;-62
2023/03/16 00:53:34;;;;;;;;;;;9.00;99.90;;;;;;5073491;28;19934;-62
2023/03/16 00:56:03;;;;;;;;;;;9.00;99.90;;;;;;5073257;28;19912;-61
2023/03/16 00:58:34;;;;;;;;;;;9.00;99.90;;;;;;5081997;28;19924;-61
2023/03/16 01:01:07;;;;;;;;;;;9.00;99.90;;;;;;5086276;28;19977;-62
2023/03/16 01:03:33;;;;;;;;;;;9.00;99.90;;;;;;5076954;28;19981;-61
2023/03/16 01:06:09;;;;;;;;;;;9.00;99.90;;;;;;5077818;28;20291;-62
2023/03/16 01:08:35;;;;;;;;;;;9.10;99.90;;;;;;5080524;28;19942;-61
2023/03/16 01:11:02;;;;;;;;;;;9.10;99.90;;;;;;5086855;28;19919;-61
2023/03/16 01:13:28;;;;;;;;;;;9.00;99.90;;;;;;5076809;28;20299;-61
2023/03/16 01:15:53;;;;;;;;;;;9.00;99.90;;;;;;5071802;28;19934;-62
2023/03/16 01:18:19;;;;;;;;;;;9.00;99.90;;;;;;5074133;28;20383;-63
2023/03/16 01:20:49;;;;;;;;;;;9.00;99.90;;;;;;5077387;28;19912;-62
2023/03/16 01:23:18;;;;;;;;;;;9.00;99.90;;;;;;5080936;28;20465;-62
2023/03/16 01:25:51;;;;;;;;;;;9.00;99.90;;;;;;5080821;28;19913;-62
2023/03/16 01:28:21;;;;;;;;;;;9.00;99.90;;;;;;5076050;28;19912;-62
2023/03/16 01:30:48;;;;;;;;;;;8.90;99.90;;;;;;5077513;28;19931;-62
2023/03/16 01:33:13;;;;;;;;;;;9.00;99.90;;;;;;5073436;28;20292;-62
2023/03/16 01:35:39;;;;;;;;;;;9.00;99.90;;;;;;5076950;28;19916;-62
2023/03/16 01:38:04;;;;;;;;;;;9.00;99.90;;;;;;5070267;28;20383;-62
2023/03/16 01:40:30;;;;;;;;;;;9.00;99.90;;;;;;5068080;28;19966;-62
2023/03/16 01:43:00;;;;;;;;;;;9.00;99.90;;;;;;5075235;28;19912;-62
2023/03/16 01:45:44;;;;;;;;;;;9.00;99.90;;;;;;5065753;28;20011;-62
2023/03/16 01:48:10;;;;;;;;;;;9.00;99.90;;;;;;5070060;28;19965;-62
2023/03/16 01:50:36;;;;;;;;;;;9.00;99.90;;;;;;5073873;28;19997;-61
2023/03/16 01:53:01;;;;;;;;;;;9.00;99.90;;;;;;5076721;28;19912;-61
2023/03/16 01:55:27;;;;;;;;;;;9.10;99.90;;;;;;5074229;28;19912;-61
2023/03/16 01:57:53;;;;;;;;;;;9.10;99.90;;;;;;5080466;28;19921;-62
2023/03/16 02:00:22;;;;;;;;;;;9.10;99.90;;;;;;5073865;28;20430;-62
2023/03/16 02:02:55;;;;;;;;;;;9.10;99.90;;;;;;5075315;28;20380;-62
2023/03/16 02:05:23;;;;;;;;;;;9.10;99.90;;;;;;5080597;28;19955;-62
2023/03/16 02:07:50;;;;;;;;;;;9.10;99.90;;;;;;5083644;28;19912;-62
2023/03/16 02:10:16;;;;;;;;;;;9.20;99.90;;;;;;5069551;28;20348;-62
2023/03/16 02:12:42;;;;;;;;;;;9.20;99.90;;;;;;5075385;28;19913;-61
2023/03/16 02:15:09;;;;;;;;;;;9.20;99.90;;;;;;5076146;28;19935;-62
2023/03/16 02:17:35;;;;;;;;;;;9.10;99.90;;;;;;5074771;28;19920;-62
2023/03/16 02:20:00;;;;;;;;;;;9.20;99.90;;;;;;5076690;28;19920;-62
2023/03/16 02:22:26;;;;;;;;;;;9.10;99.90;;;;;;5070763;28;20374;-62
2023/03/16 02:24:52;;;;;;;;;;;9.10;99.90;;;;;;5072621;28;19919;-63
2023/03/16 02:27:29;;;;;;;;;;;9.10;99.90;;;;;;5081164;28;19920;-63
2023/03/16 02:29:55;;;;;;;;;;;9.10;99.90;;;;;;5080767;28;20287;-63
2023/03/16 02:32:21;;;;;;;;;;;9.10;99.90;;;;;;5069490;28;19912;-62
2023/03/16 02:34:47;;;;;;;;;;;9.10;99.90;;;;;;5078646;28;19935;-63
2023/03/16 02:37:13;;;;;;;;;;;9.10;99.90;;;;;;5070269;28;20360;-63
2023/03/16 02:39:38;;;;;;;;;;;9.10;99.90;;;;;;5071050;28;20077;-62
2023/03/16 02:42:04;;;;;;;;;;;9.20;99.90;;;;;;5071085;28;19913;-63
2023/03/16 02:44:35;;;;;;;;;;;9.20;99.90;;;;;;5078648;28;19916;-62
2023/03/16 02:47:06;;;;;;;;;;;9.20;99.90;;;;;;5077802;28;19924;-62
2023/03/16 02:49:33;;;;;;;;;;;9.30;99.90;;;;;;5074718;28;19912;-62
2023/03/16 02:51:58;;;;;;;;;;;9.30;99.90;;;;;;5080438;28;20347;-61
2023/03/16 02:54:24;;;;;;;;;;;9.30;99.90;;;;;;5065348;28;19960;-62
2023/03/16 02:56:50;;;;;;;;;;;9.40;99.90;;;;;;5072847;28;19916;-62
2023/03/16 02:59:16;;;;;;;;;;;9.40;99.90;;;;;;5065463;28;20276;-62
2023/03/16 03:01:41;;;;;;;;;;;9.50;99.90;;;;;;5070184;28;19913;-62
2023/03/16 03:04:07;;;;;;;;;;;9.50;99.90;;;;;;5074320;28;19912;-62
2023/03/16 03:06:33;;;;;;;;;;;9.50;99.90;;;;;;5080034;28;19920;-62
2023/03/16 03:08:58;;;;;;;;;;;9.50;99.90;;;;;;5080278;28;20379;-62
2023/03/16 03:11:24;;;;;;;;;;;9.50;99.90;;;;;;5078291;28;19912;-62
2023/03/16 03:13:49;;;;;;;;;;;9.60;99.90;;;;;;5073870;28;19955;-62
2023/03/16 03:16:15;;;;;;;;;;;9.60;99.90;;;;;;5079174;28;19912;-62
2023/03/16 03:18:43;;;;;;;;;;;9.60;99.90;;;;;;5076931;28;20280;-62
2023/03/16 03:21:08;;;;;;;;;;;9.50;99.90;;;;;;5080407;28;20398;-62
2023/03/16 03:23:34;;;;;;;;;;;9.50;99.90;;;;;;5074344;28;20007;-63
2023/03/16 03:26:00;;;;;;;;;;;9.50;99.90;;;;;;5084659;28;20344;-63
2023/03/16 03:28:26;;;;;;;;;;;9.50;99.90;;;;;;5081371;28;19916;-62
2023/03/16 03:30:51;;;;;;;;;;;9.50;99.90;;;;;;5075199;28;19912;-63
2023/03/16 03:33:17;;;;;;;;;;;9.50;99.90;;;;;;5074882;28;19952;-63
2023/03/16 03:35:43;;;;;;;;;;;9.50;99.90;;;;;;5073165;28;19926;-63
2023/03/16 03:38:10;;;;;;;;;;;9.50;99.90;;;;;;5069231;28;19950;-63
2023/03/16 03:40:36;;;;;;;;;;;9.40;99.90;;;;;;5059036;28;19913;-63
2023/03/16 03:43:01;;;;;;;;;;;9.40;99.90;;;;;;5066631;28;19919;-63
2023/03/16 03:45:27;;;;;;;;;;;9.40;99.90;;;;;;5069565;28;19920;-63
2023/03/16 03:47:54;;;;;;;;;;;9.40;99.90;;;;;;5078030;28;20344;-63
2023/03/16 03:50:19;;;;;;;;;;;9.40;99.90;;;;;;5081767;28;19912;-61
2023/03/16 03:52:45;;;;;;;;;;;9.40;99.90;;;;;;5073521;28;19912;-63
2023/03/16 03:55:11;;;;;;;;;;;9.40;99.90;;;;;;5070561;28;20012;-62
2023/03/16 03:57:36;;;;;;;;;;;9.50;99.90;;;;;;5070827;28;20403;-61
2023/03/16 04:00:06;;;;;;;;;;;9.50;99.90;;;;;;5067822;28;19916;-61
2023/03/16 04:02:32;;;;;;;;;;;9.50;99.90;;;;;;5070273;28;19935;-61
2023/03/16 04:04:58;;;;;;;;;;;9.40;99.90;;;;;;5065510;28;20264;-62
2023/03/16 04:07:23;;;;;;;;;;;9.50;99.90;;;;;;5071572;28;19940;-62
2023/03/16 04:09:49;;;;;;;;;;;9.50;99.90;;;;;;5078056;28;19966;-63
2023/03/16 04:12:14;;;;;;;;;;;9.50;99.90;;;;;;5068712;28;20011;-60
2023/03/16 04:14:40;;;;;;;;;;;9.50;99.90;;;;;;5068868;28;19919;-60
2023/03/16 04:17:06;;;;;;;;;;;9.50;99.90;;;;;;5077085;28;19918;-61
2023/03/16 04:19:31;;;;;;;;;;;9.50;99.90;;;;;;5070820;28;20283;-62
2023/03/16 04:21:57;;;;;;;;;;;9.50;99.90;;;;;;5077610;28;19912;-62
2023/03/16 04:24:22;;;;;;;;;;;9.50;99.90;;;;;;5083537;28;19919;-62
2023/03/16 04:26:48;;;;;;;;;;;9.50;99.90;;;;;;5070029;28;19943;-62
2023/03/16 04:29:16;;;;;;;;;;;9.50;99.90;;;;;;5072632;28;19920;-62
2023/03/16 04:31:43;;;;;;;;;;;9.50;99.90;;;;;;5066925;28;19966;-62
2023/03/16 04:34:08;;;;;;;;;;;9.60;99.90;;;;;;5072151;28;19924;-62
2023/03/16 04:36:34;;;;;;;;;;;9.60;99.90;;;;;;5073301;28;19920;-62
2023/03/16 04:39:01;;;;;;;;;;;9.60;99.90;;;;;;5070614;28;19931;-62
2023/03/16 04:41:26;;;;;;;;;;;9.60;99.90;;;;;;5069554;28;19912;-62
2023/03/16 04:43:52;;;;;;;;;;;9.60;99.90;;;;;;5078673;28;20065;-62
2023/03/16 04:46:17;;;;;;;;;;;9.60;99.90;;;;;;5066602;28;20378;-62
2023/03/16 04:48:43;;;;;;;;;;;9.60;99.90;;;;;;5077289;28;19924;-61
2023/03/16 04:51:09;;;;;;;;;;;9.60;99.90;;;;;;5083342;28;19912;-62
2023/03/16 04:53:35;;;;;;;;;;;9.60;99.90;;;;;;5073110;28;19921;-63
2023/03/16 04:56:00;;;;;;;;;;;9.60;99.90;;;;;;5073051;28;20280;-63
2023/03/16 04:58:26;;;;;;;;;;;9.60;99.90;;;;;;5063461;28;19927;-63
2023/03/16 05:00:52;;;;;;;;;;;9.70;99.90;;;;;;5064431;28;19966;-63
2023/03/16 05:03:17;;;;;;;;;;;9.70;99.90;;;;;;5086120;28;20331;-63
2023/03/16 05:05:45;;;;;;;;;;;9.60;99.90;;;;;;5081254;28;19919;-63
2023/03/16 05:08:11;;;;;;;;;;;9.70;99.90;;;;;;5072472;28;19916;-63
2023/03/16 05:10:36;;;;;;;;;;;9.70;99.90;;;;;;5072868;28;19920;-63
2023/03/16 05:13:02;;;;;;;;;;;9.60;99.90;;;;;;5082138;28;20006;-63
2023/03/16 05:15:28;;;;;;;;;;;9.60;99.90;;;;;;5077556;28;19912;-63
2023/03/16 05:17:54;;;;;;;;;;;9.60;99.90;;;;;;5075155;28;20279;-63
2023/03/16 05:20:21;;;;;;;;;;;9.60;99.90;;;;;;5080879;28;19912;-63
2023/03/16 05:22:49;;;;;;;;;;;9.60;99.90;;;;;;5088275;28;19913;-62
2023/03/16 05:25:16;;;;;;;;;;;9.50;99.90;;;;;;5074440;28;19920;-63
2023/03/16 05:27:42;;;;;;;;;;;9.60;99.90;;;;;;5080372;28;20119;-63
2023/03/16 05:30:09;;;;;;;;;;;9.60;99.90;;;;;;5078655;28;19919;-62
2023/03/16 05:32:35;;;;;;;;;;;9.60;99.90;;;;;;5077865;28;19920;-62
2023/03/16 05:35:03;;;;;;;;;;;9.60;99.90;;;;;;5080797;28;20319;-63
2023/03/16 05:37:29;;;;;;;;;;;9.60;99.90;;;;;;5072262;28;20386;-62
2023/03/16 05:39:56;;;;;;;;;;;9.60;99.90;;;;;;5072136;28;19920;-62
2023/03/16 05:42:22;;;;;;;;;;;9.50;99.90;;;;;;5072946;28;19916;-62
2023/03/16 05:44:48;;;;;;;;;;;9.50;99.90;;;;;;5077000;28;19919;-62
2023/03/16 05:47:13;;;;;;;;;;;9.60;99.90;;;;;;5072483;28;20354;-63
2023/03/16 05:49:39;;;;;;;;;;;9.60;99.90;;;;;;5074416;28;20287;-62
2023/03/16 05:52:05;;;;;;;;;;;9.60;99.90;;;;;;5075463;28;20371;-62
2023/03/16 05:54:30;;;;;;;;;;;9.60;99.90;;;;;;5075042;28;19920;-63
2023/03/16 05:56:56;;;;;;;;;;;9.60;99.90;;;;;;5072199;28;20338;-62
2023/03/16 05:59:21;;;;;;;;;;;9.60;99.90;;;;;;5068659;28;19977;-63
2023/03/16 06:01:49;;;;;;;;;;;9.60;99.90;;;;;;5066394;28;20375;-63
2023/03/16 06:04:14;;;;;;;;;;;9.60;99.90;;;;;;5062792;28;19959;-62
2023/03/16 06:06:40;;;;;;;;;;;9.60;99.90;;;;;;5070235;28;19952;-62
2023/03/16 06:09:06;;;;;;;;;;;9.70;99.90;;;;;;5065045;28;20265;-63
2023/03/16 06:11:32;;;;;;;;;;;9.70;99.90;;;;;;5066723;28;19913;-63
2023/03/16 06:17:00;;;;;;;;;;;9.70;99.90;;;;;;5074013;28;19987;-63
2023/03/16 06:19:26;;;;;;;;;;;9.70;99.90;;;;;;5080173;28;19927;-63
2023/03/16 06:21:51;;;;;;;;;;;9.80;99.90;;;;;;5070693;28;19916;-63
2023/03/16 06:24:17;;;;;;;;;;;9.80;99.90;;;;;;5078718;28;19923;-62
2023/03/16 06:26:43;;;;;;;;;;;9.80;99.90;;;;;;5073374;28;19952;-62
2023/03/16 06:29:09;;;;;;;;;;;9.80;99.90;;;;;;5088355;28;19919;-63
2023/03/16 06:31:34;;;;;;;;;;;9.80;99.90;;;;;;5071960;28;19920;-62
2023/03/16 06:34:00;;;;;;;;;;;9.80;99.90;;;;;;5063631;28;19975;-62
2023/03/16 06:36:28;;;;;;;;;;;9.80;99.90;;;;;;5072987;28;20390;-61
2023/03/16 06:38:54;;;;;;;;;;;9.90;99.90;;;;;;5078316;28;19920;-62
2023/03/16 06:41:20;;;;;;;;;;;9.80;99.90;;;;;;5077154;28;20386;-61
2023/03/16 06:43:45;;;;;;;;;;;9.90;99.90;;;;;;5062275;28;19912;-62
2023/03/16 06:46:11;;;;;;;;;;;9.90;99.90;;;;;;5078717;28;20359;-62
2023/03/16 06:48:37;;;;;;;;;;;9.90;99.90;;;;;;5084469;28;20004;-62
2023/03/16 06:51:03;;;;;;;;;;;9.90;99.90;;;;;;5078699;28;19991;-62
2023/03/16 06:53:28;;;;;;;;;;;9.90;99.90;;;;;;5074743;28;19951;-63
2023/03/16 06:55:54;;;;;;;;;;;10.00;99.90;;;;;;5075050;28;19912;-62
2023/03/16 06:58:20;;;;;;;;;;;10.00;99.90;;;;;;5071138;28;19921;-63
2023/03/16 07:00:45;;;;;;;;;;;10.00;99.90;;;;;;5080372;28;20003;-63
2023/03/16 07:03:11;;;;;;;;;;;10.00;99.90;;;;;;5071494;28;19919;-63
2023/03/16 07:05:37;;;;;;;;;;;10.10;99.90;;;;;;5070722;28;19960;-63
2023/03/16 07:08:03;;;;;;;;;;;10.10;99.90;;;;;;5073034;28;20264;-63
2023/03/16 07:10:29;;;;;;;;;;;10.10;99.90;;;;;;5071828;28;19919;-63
2023/03/16 07:12:55;;;;;;;;;;;10.20;99.90;;;;;;5072604;28;19913;-62
2023/03/16 07:15:20;;;;;;;;;;;10.20;99.90;;;;;;5070476;28;19912;-62
2023/03/16 07:17:46;;;;;;;;;;;10.30;99.90;;;;;;5084116;28;20384;-61
2023/03/16 07:20:12;;;;;;;;;;;10.30;99.90;;;;;;5079573;28;20042;-61
2023/03/16 07:22:38;;;;;;;;;;;10.40;99.90;;;;;;5082865;28;19916;-61
2023/03/16 07:25:04;;;;;;;;;;;10.30;99.90;;;;;;5073234;28;19920;-61
2023/03/16 07:27:30;;;;;;;;;;;10.40;99.90;;;;;;5077984;28;19922;-63
2023/03/16 07:29:56;;;;;;;;;;;10.40;99.90;;;;;;5074962;28;19912;-62
2023/03/16 07:32:21;;;;;;;;;;;10.50;99.90;;;;;;5063474;28;20364;-63
2023/03/16 07:34:47;;;;;;;;;;;10.50;99.90;;;;;;5069464;28;19912;-62
2023/03/16 07:37:13;;;;;;;;;;;10.50;99.90;;;;;;5066886;28;20015;-63
2023/03/16 07:39:38;;;;;;;;;;;10.70;99.90;;;;;;5061870;28;20334;-63
2023/03/16 07:42:04;;;;;;;;;;;10.70;99.90;;;;;;5069357;28;19912;-61
2023/03/16 07:44:30;;;;;;;;;;;10.70;99.90;;;;;;5075209;28;19913;-61
2023/03/16 07:46:55;;;;;;;;;;;10.70;99.90;;;;;;5079721;28;20396;-62
2023/03/16 07:49:21;;;;;;;;;;;10.70;99.90;;;;;;5068363;28;20352;-62
2023/03/16 07:51:47;;;;;;;;;;;10.70;99.90;;;;;;5076022;28;19958;-62
2023/03/16 07:54:13;;;;;;;;;;;10.80;99.90;;;;;;5067189;28;19913;-62
2023/03/16 07:56:38;;;;;;;;;;;10.80;99.90;;;;;;5073705;28;19913;-62
2023/03/16 07:59:04;;;;;;;;;;;10.80;99.90;;;;;;5065986;28;20019;-62
2023/03/16 08:01:30;;;;;;;;;;;10.80;99.90;;;;;;5073772;28;20365;-62
2023/03/16 08:03:55;;;;;;;;;;;10.80;99.90;;;;;;5071353;28;20356;-63
2023/03/16 08:06:21;;;;;;;;;;;10.80;99.90;;;;;;5067554;28;20312;-62
2023/03/16 08:08:47;;;;;;;;;;;10.80;99.90;;;;;;5066759;28;19912;-63
2023/03/16 08:11:13;;;;;;;;;;;10.80;99.90;;;;;;5065984;28;19916;-63
2023/03/16 08:13:40;;;;;;;;;;;10.80;99.90;;;;;;5069542;28;20043;-63
2023/03/16 08:16:09;;;;;;;;;;;10.70;99.90;;;;;;5066637;28;20244;-63
2023/03/16 08:18:35;;;;;;;;;;;10.70;99.90;;;;;;5072406;28;20406;-63
2023/03/16 08:21:01;;;;;;;;;;;10.80;99.90;;;;;;5072002;28;19916;-61
2023/03/16 08:23:28;;;;;;;;;;;10.80;99.90;;;;;;5080690;28;19912;-61
2023/03/16 08:25:55;;;;;;;;;;;10.80;99.90;;;;;;5073996;28;19935;-62
2023/03/16 08:28:20;;;;;;;;;;;10.70;99.90;;;;;;5060700;28;19974;-63
2023/03/16 08:30:47;;;;;;;;;;;10.70;99.90;;;;;;5072607;28;20364;-63
2023/03/16 08:33:13;;;;;;;;;;;10.90;99.90;;;;;;5065109;28;19919;-64
2023/03/16 08:35:43;;;;;;;;;;;11.10;99.90;;;;;;5068698;28;19923;-63
2023/03/16 08:38:09;;;;;;;;;;;11.10;99.90;;;;;;5072516;28;19973;-63
2023/03/16 08:40:35;;;;;;;;;;;11.10;99.90;;;;;;5074370;28;19912;-64
2023/03/16 08:43:01;;;;;;;;;;;11.10;99.90;;;;;;5077355;28;19999;-64
2023/03/16 08:45:27;;;;;;;;;;;11.00;99.90;;;;;;5074868;28;19921;-64
2023/03/16 08:47:53;;;;;;;;;;;11.00;99.90;;;;;;5068234;28;19920;-63
2023/03/16 08:50:19;;;;;;;;;;;10.90;99.90;;;;;;5075610;28;20389;-62
2023/03/16 08:52:45;;;;;;;;;;;10.90;99.90;;;;;;5082006;28;19991;-63
2023/03/16 08:55:12;;;;;;;;;;;10.90;99.90;;;;;;5078838;28;20320;-63
2023/03/16 08:57:38;;;;;;;;;;;10.80;99.90;;;;;;5077313;28;19916;-63
2023/03/16 09:00:11;;;;;;;;;;;10.70;99.90;;;;;;5079148;28;19918;-63
2023/03/16 09:02:39;;;;;;;;;;;10.80;99.90;;;;;;5071952;28;19966;-63
2023/03/16 09:05:06;;;;;;;;;;;10.90;99.90;;;;;;5081520;28;19912;-63
2023/03/16 09:07:34;;;;;;;;;;;11.00;99.90;;;;;;5072314;28;20368;-63
2023/03/16 09:10:00;;;;;;;;;;;11.00;99.90;;;;;;5074812;28;19912;-63
2023/03/16 09:12:26;;;;;;;;;;;11.10;99.90;;;;;;5073695;28;20010;-62
2023/03/16 09:14:53;;;;;;;;;;;11.00;99.90;;;;;;5074662;28;19920;-63
2023/03/16 09:17:19;;;;;;;;;;;11.00;99.90;;;;;;5065253;28;19916;-63
2023/03/16 09:19:45;;;;;;;;;;;10.90;99.90;;;;;;5075107;28;20006;-63
2023/03/16 09:22:11;;;;;;;;;;;11.00;99.90;;;;;;5069556;28;20011;-63
2023/03/16 09:24:37;;;;;;;;;;;10.90;99.90;;;;;;5072358;28;19916;-63
2023/03/16 09:27:04;;;;;;;;;;;10.80;99.90;;;;;;5069301;28;20368;-63
2023/03/16 09:29:29;;;;;;;;;;;10.80;99.90;;;;;;5079679;28;20359;-63
2023/03/16 09:31:55;;;;;;;;;;;10.70;99.90;;;;;;5073317;28;19912;-63
2023/03/16 09:34:21;;;;;;;;;;;10.60;99.90;;;;;;5073968;28;19960;-63
2023/03/16 09:36:47;;;;;;;;;;;10.60;99.90;;;;;;5072169;28;19958;-63
2023/03/16 09:39:13;;;;;;;;;;;10.70;99.90;;;;;;5075319;28;19921;-63
2023/03/16 09:41:52;;;;;;;;;;;10.60;99.90;;;;;;5070928;28;20276;-63
2023/03/16 09:44:37;;;;;;;;;;;10.50;99.90;;;;;;5069405;28;19940;-64
2023/03/16 09:47:03;;;;;;;;;;;10.50;99.90;;;;;;5082644;28;19916;-63
2023/03/16 09:49:34;;;;;;;;;;;10.60;99.90;;;;;;5074318;28;19987;-63
2023/03/16 09:52:02;;;;;;;;;;;10.70;99.90;;;;;;5078942;28;20378;-63
2023/03/16 09:54:28;;;;;;;;;;;10.70;99.90;;;;;;5074668;28;19960;-63
2023/03/16 09:56:54;;;;;;;;;;;10.90;99.90;;;;;;5075409;28;19952;-63
2023/03/16 09:59:21;;;;;;;;;;;10.90;99.90;;;;;;5071948;28;20035;-63
2023/03/16 10:01:55;;;;;;;;;;;11.00;99.90;;;;;;5068871;28;19982;-64
2023/03/16 10:04:24;;;;;;;;;;;11.10;99.90;;;;;;5069141;28;20002;-63
2023/03/16 10:07:08;;;;;;;;;;;11.00;99.90;;;;;;5071657;28;19957;-64
2023/03/16 10:09:40;;;;;;;;;;;11.00;99.90;;;;;;5065626;28;19973;-64
2023/03/16 10:12:06;;;;;;;;;;;11.00;99.90;;;;;;5067401;28;19940;-64
2023/03/16 10:14:56;;;;;;;;;;;11.00;99.90;;;;;;5072478;28;19913;-64
2023/03/16 10:17:29;;;;;;;;;;;11.00;99.90;;;;;;5066621;28;19916;-64
2023/03/16 10:20:07;;;;;;;;;;;11.00;99.90;;;;;;5081401;28;19920;-64
2023/03/16 10:22:36;;;;;;;;;;;11.10;99.90;;;;;;5066146;28;20274;-64
2023/03/16 10:25:01;;;;;;;;;;;11.10;99.90;;;;;;5073511;28;19967;-64
2023/03/16 10:27:28;;;;;;;;;;;11.10;99.90;;;;;;5071540;28;20417;-66
2023/03/16 10:29:55;;;;;;;;;;;11.10;99.90;;;;;;5070521;28;19916;-64
2023/03/16 10:32:23;;;;;;;;;;;11.30;99.90;;;;;;5070698;28;19927;-63
2023/03/16 10:34:53;;;;;;;;;;;11.30;99.90;;;;;;5072702;28;19937;-64
2023/03/16 10:37:20;;;;;;;;;;;11.60;99.90;;;;;;5067153;28;19919;-64
2023/03/16 10:39:47;;;;;;;;;;;11.60;99.90;;;;;;5074576;28;19924;-64
2023/03/16 10:42:15;;;;;;;;;;;11.60;99.90;;;;;;5077984;28;19920;-64
2023/03/16 10:44:41;;;;;;;;;;;11.70;99.90;;;;;;5072422;28;19920;-63
2023/03/16 10:47:07;;;;;;;;;;;11.80;99.90;;;;;;5076821;28;19917;-63
2023/03/16 10:49:40;;;;;;;;;;;12.00;99.90;;;;;;5068922;28;19920;-64
2023/03/16 10:52:16;;;;;;;;;;;12.00;99.90;;;;;;5068119;28;20007;-64
2023/03/16 10:54:48;;;;;;;;;;;12.10;99.90;;;;;;5068157;28;19935;-64
2023/03/16 10:57:26;;;;;;;;;;;12.40;99.90;;;;;;5068736;28;20283;-63
2023/03/16 10:59:53;;;;;;;;;;;12.50;99.90;;;;;;5068669;28;19963;-64
2023/03/16 11:02:22;;;;;;;;;;;12.70;99.90;;;;;;5082242;28;20011;-63
2023/03/16 11:04:48;;;;;;;;;;;12.80;99.90;;;;;;5064421;28;20362;-63
2023/03/16 11:07:16;;;;;;;;;;;12.80;99.90;;;;;;5069226;28;19952;-64
2023/03/16 11:09:42;;;;;;;;;;;12.80;99.90;;;;;;5069871;28;19986;-63
2023/03/16 11:12:12;;;;;;;;;;;12.90;99.90;;;;;;5073420;28;19916;-64
2023/03/16 11:14:42;;;;;;;;;;;12.80;99.90;;;;;;5065675;28;19959;-65
2023/03/16 11:17:27;;;;;;;;;;;12.70;99.90;;;;;;5070841;28;19924;-65
2023/03/16 11:19:56;;;;;;;;;;;12.80;99.90;;;;;;5073596;28;19927;-65
2023/03/16 11:22:24;;;;;;;;;;;12.90;99.90;;;;;;5066989;28;20352;-65
2023/03/16 11:24:56;;;;;;;;;;;12.90;99.90;;;;;;5072356;28;19916;-65
2023/03/16 11:27:28;;;;;;;;;;;13.20;99.90;;;;;;5072994;28;20271;-64
2023/03/16 11:29:53;;;;;;;;;;;13.30;99.90;;;;;;5069444;28;20007;-64
2023/03/16 11:32:21;;;;;;;;;;;13.30;99.90;;;;;;5072471;28;20356;-65
2023/03/16 11:34:49;;;;;;;;;;;13.60;99.90;;;;;;5067527;28;19912;-64
2023/03/16 11:37:33;;;;;;;;;;;13.80;99.90;;;;;;5065904;28;19913;-65
2023/03/16 11:40:14;;;;;;;;;;;14.00;99.90;;;;;;5073779;28;19960;-64
2023/03/16 11:43:00;;;;;;;;;;;14.30;99.90;;;;;;5067733;28;19920;-65
2023/03/16 11:45:46;;;;;;;;;;;14.40;99.90;;;;;;5072284;28;19912;-65
2023/03/16 11:48:11;;;;;;;;;;;14.30;99.90;;;;;;5066503;28;19931;-65
2023/03/16 11:50:37;;;;;;;;;;;14.10;99.90;;;;;;5074357;28;19917;-66
2023/03/16 11:53:16;;;;;;;;;;;14.00;99.90;;;;;;5068859;28;19913;-64
2023/03/16 11:55:45;;;;;;;;;;;13.90;99.90;;;;;;5077528;28;20434;-64
2023/03/16 11:58:11;;;;;;;;;;;14.10;99.90;;;;;;5068699;28;19986;-65
2023/03/16 12:00:46;;;;;;;;;;;14.10;99.90;;;;;;5068399;28;19912;-65
2023/03/16 12:03:35;;;;;;;;;;;14.00;99.90;;;;;;5071105;28;19939;-65
2023/03/16 12:06:00;;;;;;;;;;;13.70;99.90;;;;;;5067581;28;19912;-65
2023/03/16 12:08:29;;;;;;;;;;;13.90;99.90;;;;;;5070486;28;19965;-65
2023/03/16 12:11:04;;;;;;;;;;;14.20;99.90;;;;;;5071399;28;19939;-65
2023/03/16 12:13:37;;;;;;;;;;;14.20;99.90;;;;;;5068163;28;19912;-65
2023/03/16 12:16:10;;;;;;;;;;;14.10;99.90;;;;;;5069475;28;20018;-65
2023/03/16 12:18:45;;;;;;;;;;;14.20;99.90;;;;;;5069925;28;19960;-64
2023/03/16 12:21:13;;;;;;;;;;;14.20;99.90;;;;;;5080723;28;20379;-64
2023/03/16 12:23:51;;;;;;;;;;;14.30;99.90;;;;;;5074235;28;20458;-66
2023/03/16 12:26:18;;;;;;;;;;;14.70;99.90;;;;;;5073724;28;19919;-66
2023/03/16 12:28:43;;;;;;;;;;;14.70;99.90;;;;;;5074466;28;19965;-65
2023/03/16 12:31:16;;;;;;;;;;;15.10;99.90;;;;;;5074989;28;19916;-65
2023/03/16 12:33:48;;;;;;;;;;;15.10;99.90;;;;;;5070031;28;19927;-64
2023/03/16 12:36:33;;;;;;;;;;;15.10;99.90;;;;;;5072498;28;19912;-65
2023/03/16 12:39:06;;;;;;;;;;;15.50;99.90;;;;;;5061999;28;19946;-65
2023/03/16 12:41:51;;;;;;;;;;;15.80;99.90;;;;;;5069956;28;19917;-65
2023/03/16 12:44:19;;;;;;;;;;;16.20;99.90;;;;;;5057738;28;19919;-65
2023/03/16 12:46:48;;;;;;;;;;;16.30;99.90;;;;;;5075225;28;19912;-66
2023/03/16 12:49:14;;;;;;;;;;;15.90;99.90;;;;;;5060794;28;19920;-65
2023/03/16 12:51:41;;;;;;;;;;;15.40;99.90;;;;;;5068610;28;20455;-65
2023/03/16 12:54:24;;;;;;;;;;;15.50;99.90;;;;;;5070136;28;20282;-65
2023/03/16 12:56:52;;;;;;;;;;;15.30;99.90;;;;;;5071659;28;19919;-65
2023/03/16 12:59:19;;;;;;;;;;;15.70;99.90;;;;;;5075047;28;19920;-65
2023/03/16 13:01:48;;;;;;;;;;;15.50;99.90;;;;;;5074220;28;19999;-64
2023/03/16 13:04:22;;;;;;;;;;;15.50;99.90;;;;;;5067247;28;20011;-64
2023/03/16 13:07:00;;;;;;;;;;;15.90;99.90;;;;;;5070219;28;20287;-65
2023/03/16 13:09:30;;;;;;;;;;;15.80;99.90;;;;;;5063992;28;20413;-65
2023/03/16 13:11:55;;;;;;;;;;;15.40;99.90;;;;;;5075434;28;19963;-65
2023/03/16 13:14:37;;;;;;;;;;;15.20;99.90;;;;;;5068358;28;19962;-66
2023/03/16 13:17:23;;;;;;;;;;;15.30;99.90;;;;;;5076814;28;20026;-65
2023/03/16 13:19:57;;;;;;;;;;;16.10;99.90;;;;;;5074703;28;19978;-65
2023/03/16 13:22:45;;;;;;;;;;;16.50;99.90;;;;;;5070691;28;20018;-65
2023/03/16 13:25:37;;;;;;;;;;;17.00;99.90;;;;;;5071592;28;19965;-65
2023/03/16 13:28:05;;;;;;;;;;;16.90;99.90;;;;;;5071475;28;19912;-63
2023/03/16 13:30:33;;;;;;;;;;;16.70;99.90;;;;;;5077040;28;20279;-65
2023/03/16 13:33:18;;;;;;;;;;;17.00;99.90;;;;;;5085824;28;19912;-65
2023/03/16 13:35:44;;;;;;;;;;;16.60;99.90;;;;;;5077840;28;19917;-64
2023/03/16 13:38:18;;;;;;;;;;;16.90;99.90;;;;;;5069282;28;20015;-65
2023/03/16 13:40:46;;;;;;;;;;;16.60;99.90;;;;;;5073448;28;19916;-65
2023/03/16 13:43:14;;;;;;;;;;;17.10;99.90;;;;;;5084036;28;20309;-65
2023/03/16 13:45:40;;;;;;;;;;;17.10;99.90;;;;;;5076377;28;19912;-65
2023/03/16 13:48:05;;;;;;;;;;;17.00;99.90;;;;;;5077276;28;19943;-65
2023/03/16 13:50:32;;;;;;;;;;;17.10;99.90;;;;;;5074030;28;20329;-65
2023/03/16 13:52:59;;;;;;;;;;;16.70;99.90;;;;;;5073210;28;20283;-66
2023/03/16 13:55:32;;;;;;;;;;;16.80;99.90;;;;;;5071134;28;19919;-66
2023/03/16 13:58:00;;;;;;;;;;;16.60;99.90;;;;;;5067671;28;20372;-65
2023/03/16 14:00:34;;;;;;;;;;;16.20;99.90;;;;;;5072554;28;19922;-65
2023/03/16 14:03:03;;;;;;;;;;;16.00;99.90;;;;;;5071959;28;19916;-65
2023/03/16 14:05:32;;;;;;;;;;;16.00;99.90;;;;;;5071808;28;19913;-66
2023/03/16 14:07:59;;;;;;;;;;;16.20;99.90;;;;;;5076343;28;19999;-65
2023/03/16 14:10:28;;;;;;;;;;;16.60;99.90;;;;;;5074514;28;19913;-64
2023/03/16 14:12:56;;;;;;;;;;;16.80;99.90;;;;;;5074844;28;19927;-64
2023/03/16 14:15:24;;;;;;;;;;;17.00;99.90;;;;;;5069399;28;19920;-65
2023/03/16 14:17:50;;;;;;;;;;;17.40;99.90;;;;;;5080706;28;19957;-65
2023/03/16 14:20:18;;;;;;;;;;;18.00;99.90;;;;;;5060293;28;20390;-64
2023/03/16 14:22:43;;;;;;;;;;;17.70;99.90;;;;;;5069613;28;19916;-65
2023/03/16 14:25:13;;;;;;;;;;;17.40;99.90;;;;;;5066648;28;20268;-64
2023/03/16 14:27:39;;;;;;;;;;;17.20;99.90;;;;;;5070008;28;19913;-64
2023/03/16 14:30:14;;;;;;;;;;;16.90;99.90;;;;;;5072950;28;20248;-65
2023/03/16 14:32:40;;;;;;;;;;;17.20;99.90;;;;;;5067232;28;20338;-65